Data for 06/15/2009

Time Sea-Level Adjusted Pressure Absolute Pressure Temperature Relative Humidity Dew Point   
(mb) (inHg) (mb) (inHg) (C) (F) (%) (C) (F)
00:05 1014 29.94 843 24.89 11 51.8 85 8.5 47.3
00:10 1014 29.94 843 24.89 11 51.8 86 8.7 47.6
00:15 1014 29.94 843 24.89 10.9 51.5 85 8.5 47.3
00:20 1014 29.94 843 24.89 10.9 51.7 85 8.5 47.2
00:25 1014 29.94 843 24.89 10.9 51.6 86 8.6 47.5
00:30 1014 29.94 843 24.89 10.8 51.5 86 8.6 47.4
00:35 1014 29.94 843 24.89 10.7 51.2 86 8.5 47.4
00:40 1014 29.94 843 24.89 10.6 51.1 86 8.4 47.2
00:45 1014 29.94 843 24.89 10.6 51.1 87 8.5 47.3
00:50 1014 29.94 843 24.89 10.5 50.9 87 8.5 47.3
00:55 1014 29.94 843 24.89 10.4 50.7 88 8.5 47.2
01:00 1014 29.94 843 24.89 10.3 50.5 88 8.4 47.1
01:05 1014 29.94 843 24.89 10.3 50.5 88 8.3 46.9
01:10 1014 29.94 843 24.89 10.3 50.5 88 8.3 47
01:15 1014 29.94 843 24.89 10.2 50.4 89 8.5 47.3
01:20 1014 29.94 843 24.89 10 49.9 90 8.4 47.2
01:25 1014 29.94 843 24.89 9.9 49.8 90 8.3 46.9
01:30 1014 29.94 843 24.89 9.9 49.8 89 8.2 46.7
01:35 1014 29.94 843 24.89 9.8 49.7 89 8 46.5
01:40 1014 29.94 843 24.89 9.7 49.5 89 8 46.4
01:45 1014 29.94 843 24.89 9.8 49.6 88 7.9 46.1
01:50 1014 29.94 843 24.89 10 50 87 7.9 46.3
01:55 1014 29.94 843 24.89 10 50 87 7.9 46.2
02:00 1014 29.94 843 24.89 10.1 50.1 88 8.1 46.6
02:05 1014 29.94 843 24.89 10 49.9 88 8.1 46.5
02:10 1014 29.94 843 24.89 9.9 49.9 88 8 46.4
02:15 1014 29.94 843 24.89 9.9 49.9 88 8 46.3
02:20 1014 29.94 843 24.89 10 49.9 88 8 46.5
02:25 1014 29.94 843 24.89 9.8 49.7 88 7.9 46.3
02:30 1014 29.94 843 24.89 9.7 49.4 88 7.8 46.1
02:35 1014 29.94 843 24.89 9.6 49.3 89 7.9 46.2
02:40 1014 29.94 843 24.89 9.6 49.3 89 7.9 46.2
02:45 1014 29.94 843 24.89 9.7 49.4 89 8 46.3
02:50 1014 29.94 843 24.89 9.7 49.4 89 7.9 46.3
02:55 1014 29.94 843 24.89 9.7 49.5 88 7.8 46
03:00 1014 29.94 843 24.89 9.9 49.8 87 7.9 46.2
03:05 1014 29.94 843 24.89 9.9 49.7 88 8 46.3
03:10 1014 29.94 843 24.89 9.8 49.6 88 7.9 46.2
03:15 1014 29.94 843 24.89 9.8 49.6 89 8 46.4
03:20 1014 29.94 843 24.89 9.8 49.6 88 7.9 46.2
03:25 1014 29.94 843 24.89 9.9 49.8 87 7.8 46.1
03:30 1014 29.94 843 24.89 9.9 49.9 88 8 46.4
03:35 1014 29.94 843 24.89 9.8 49.7 89 8.1 46.5
03:40 1014 29.94 843 24.89 9.8 49.6 89 8.1 46.6
03:45 1014 29.94 843 24.89 9.9 49.8 87 7.9 46.2
03:50 1014 29.94 843 24.89 10 50 88 8 46.4
03:55 1014 29.94 843 24.89 10 50 88 8.1 46.6
04:00 1014 29.94 843 24.89 10 49.9 89 8.2 46.7
04:05 1014 29.94 843 24.89 9.9 49.9 89 8.2 46.7
04:10 1014 29.94 843 24.89 9.9 49.9 89 8.2 46.7
04:15 1014 29.94 843 24.89 10 49.9 88 8.1 46.7
04:20 1014 29.94 843 24.89 10 50.1 88 8.2 46.8
04:25 1014 29.94 843 24.89 10 50 89 8.3 46.9
04:30 1014 29.94 843 24.89 10 49.9 89 8.2 46.8
04:35 1014 29.94 843 24.89 10 50.1 89 8.3 46.9
04:40 1014 29.94 843 24.89 10 50.1 89 8.4 47.1
04:45 1014 29.94 843 24.89 10 49.9 89 8.3 46.9
04:50 1014 29.94 843 24.89 9.9 49.9 89 8.3 46.9
04:55 1014 29.94 843 24.89 9.9 49.8 90 8.3 47
05:00 1014 29.94 843 24.89 9.9 49.9 89 8.3 46.9
05:05 1014 29.94 843 24.89 10 50 88 8.1 46.5
05:10 1014 29.94 843 24.89 10 50 87 7.9 46.2
05:15 1014 29.94 843 24.89 10 50 87 7.9 46.2
05:20 1014 29.94 843 24.89 10 50.1 86 7.8 46.1
05:25 1014 29.94 843 24.89 10.1 50.2 85 7.7 45.9
05:30 1014 29.94 843 24.89 10.2 50.4 87 8.2 46.7
05:35 1014 29.94 843 24.89 10.1 50.2 87 8.1 46.6
05:40 1014 29.94 843 24.89 10.1 50.2 87 8.1 46.5
05:45 1014 29.94 843 24.89 10.1 50.2 87 8.1 46.6
05:50 1014 29.94 843 24.89 10.1 50.2 87 8.1 46.6
05:55 1014 29.94 843 24.89 10.2 50.3 87 8.1 46.6
06:00 1014 29.94 843 24.89 10.2 50.3 88 8.2 46.8
06:05 1014 29.94 843 24.89 10.2 50.3 87 8.2 46.7
06:10 1014 29.94 843 24.89 10.2 50.4 88 8.3 46.9
06:15 1014 29.94 843 24.89 10.2 50.4 88 8.4 47
06:20 1014 29.94 844 24.92 10.3 50.5 89 8.5 47.2
06:25 1014 29.94 844 24.92 10.3 50.5 89 8.5 47.3
06:30 1014 29.94 844 24.92 10.3 50.5 88 8.4 47.1
06:35 1014 29.94 844 24.92 10.3 50.5 87 8.3 46.9
06:40 1014 29.94 844 24.92 10.3 50.6 88 8.4 47.1
06:45 1014 29.94 844 24.92 10.3 50.6 88 8.4 47.1
06:50 1014 29.94 844 24.92 10.3 50.6 88 8.5 47.3
06:55 1015 29.97 844 24.92 10.4 50.8 89 8.6 47.5
07:00 1015 29.97 844 24.92 10.4 50.8 88 8.5 47.2
07:05 1015 29.97 844 24.92 10.5 50.9 88 8.7 47.6
07:10 1015 29.97 844 24.92 10.5 50.9 89 8.8 47.9
07:15 1015 29.97 844 24.92 10.4 50.7 91 8.9 48
07:20 1015 29.97 844 24.92 10.2 50.4 93 9.1 48.3
07:25 1015 29.97 844 24.92 10.2 50.3 93 9.1 48.3
07:30 1015 29.97 844 24.92 10.1 50.3 93 9.1 48.4
07:35 1015 29.97 844 24.92 10.1 50.2 93 9.1 48.4
07:40 1015 29.97 844 24.92 10.1 50.2 94 9.1 48.4
07:45 1015 29.97 844 24.92 10.1 50.2 94 9.2 48.6
07:50 1015 29.97 844 24.92 10.1 50.3 94 9.2 48.6
07:55 1015 29.97 844 24.92 10.2 50.4 94 9.3 48.8
08:00 1015 29.97 844 24.92 10.2 50.3 94 9.3 48.7
08:05 1015 29.97 844 24.92 10.1 50.1 94 9.1 48.4
08:10 1015 29.97 844 24.92 10.1 50.1 94 9.1 48.4
08:15 1015 29.97 844 24.92 10.1 50.1 95 9.3 48.7
08:20 1015 29.97 844 24.92 10 50.1 95 9.2 48.6
08:25 1015 29.97 844 24.92 10.1 50.1 95 9.3 48.8
08:30 1015 29.97 844 24.92 10.1 50.1 95 9.3 48.7
08:35 1015 29.97 844 24.92 10 50.1 95 9.2 48.6
08:40 1015 29.97 844 24.92 10 50 95 9.2 48.5
08:45 1015 29.97 844 24.92 10.1 50.1 95 9.3 48.7
08:50 1015 29.97 844 24.92 10.2 50.3 95 9.4 49
08:55 1015 29.97 844 24.92 10.1 50.3 95 9.4 48.9
09:00 1015 29.97 844 24.92 10.2 50.3 95 9.5 49
09:05 1015 29.97 844 24.92 10.2 50.3 95 9.4 49
09:10 1015 29.97 844 24.92 10.2 50.4 95 9.5 49
09:15 1015 29.97 844 24.92 10.2 50.4 95 9.5 49.2
09:20 1015 29.97 844 24.92 10.2 50.3 96 9.5 49
09:25 1015 29.97 844 24.92 10.1 50.2 94 9.3 48.7
09:30 1015 29.97 844 24.92 10.1 50.2 94 9.2 48.6
09:35 1015 29.97 844 24.92 10.2 50.3 95 9.4 48.8
09:40 1015 29.97 844 24.92 10.3 50.5 95 9.5 49.1
09:45 1015 29.97 844 24.92 10.4 50.6 95 9.6 49.2
09:50 1015 29.97 844 24.92 10.3 50.6 95 9.5 49.1
09:55 1015 29.97 844 24.92 10.2 50.4 94 9.2 48.6
10:00 1015 29.97 844 24.92 10.3 50.5 92 9 48.3
10:05 1015 29.97 844 24.92 10.4 50.7 89 8.7 47.6
10:10 1015 29.97 844 24.92 10.6 51 90 9 48.2
10:15 1015 29.97 844 24.92 10.7 51.2 88 8.9 48
10:20 1015 29.97 844 24.92 10.8 51.4 88 8.9 48
10:25 1015 29.97 844 24.92 10.9 51.7 90 9.3 48.8
10:30 1015 29.97 844 24.92 11.1 52 88 9.2 48.6
10:35 1015 29.97 844 24.92 11.3 52.4 89 9.5 49.2
10:40 1015 29.97 844 24.92 11.4 52.5 89 9.7 49.4
10:45 1015 29.97 844 24.92 11.6 52.8 86 9.2 48.6
10:50 1015 29.97 844 24.92 11.8 53.3 85 9.4 48.9
10:55 1015 29.97 844 24.92 12.3 54.1 85 9.8 49.7
11:00 1015 29.97 844 24.92 13 55.3 84 10.3 50.5
11:05 1015 29.97 844 24.92 13.9 57 76 9.8 49.6
11:10 1015 29.97 844 24.92 14.1 57.3 69 8.4 47.1
11:15 1015 29.97 844 24.92 13.6 56.5 72 8.7 47.7
11:20 1015 29.97 844 24.92 13.8 56.8 72 8.8 47.8
11:25 1015 29.97 844 24.92 13.8 56.8 73 9 48.3
11:30 1015 29.97 844 24.92 14.3 57.8 71 9.1 48.4
11:35 1015 29.97 844 24.92 14.3 57.8 68 8.5 47.3
11:40 1015 29.97 844 24.92 14.6 58.2 71 9.3 48.8
11:45 1014 29.94 844 24.92 14.9 58.8 68 9.2 48.5
11:50 1014 29.94 844 24.92 15.2 59.4 65 8.7 47.7
11:55 1014 29.94 844 24.92 15.3 59.5 66 9 48.2
12:00 1014 29.94 844 24.92 16.1 61 58 8 46.4
12:05 1014 29.94 844 24.92 16.9 62.3 54 7.5 45.4
12:10 1014 29.94 844 24.92 16.9 62.3 52 7.1 44.9
12:15 1014 29.94 844 24.92 17.1 62.7 53 7.6 45.7
12:20 1014 29.94 844 24.92 17.9 64.2 50 7.5 45.5
12:25 1014 29.94 844 24.92 18.3 65 49 7.7 45.8
12:30 1014 29.94 843 24.89 18.2 64.8 54 8.8 47.8
12:35 1014 29.94 843 24.89 17.7 63.9 50 7.4 45.3
12:40 1014 29.94 843 24.89 17.2 63 54 8 46.5
12:45 1014 29.94 843 24.89 17 62.6 52 7.2 45
12:50 1014 29.94 843 24.89 17.4 63.3 51 7.2 45
12:55 1014 29.94 843 24.89 18.9 66.1 45 6.9 44.4
13:00 1014 29.94 843 24.89 20.5 68.9 41 7.1 44.8
13:05 1014 29.94 843 24.89 20.6 69.1 41 7 44.6
13:10 1014 29.94 843 24.89 20.3 68.6 40 6.6 43.8
13:15 1014 29.94 843 24.89 20.1 68.2 41 6.6 43.9
13:20 1014 29.94 843 24.89 20.1 68.3 43 7.5 45.4
13:25 1014 29.94 843 24.89 19.9 67.8 45 7.9 46.1
13:30 1014 29.94 843 24.89 20.3 68.5 45 8 46.4
13:35 1014 29.94 843 24.89 20.1 68.1 46 8.4 47
13:40 1014 29.94 843 24.89 19.4 66.9 48 8.2 46.8
13:45 1014 29.94 843 24.89 18.6 65.4 48 7.6 45.7
13:50 1014 29.94 843 24.89 18.2 64.8 48 7.2 45
13:55 1014 29.94 843 24.89 18.4 65.1 45 6.3 43.3
14:00 1014 29.94 843 24.89 19.1 66.3 48 7.8 46
14:05 1014 29.94 843 24.89 19 66.1 47 7.5 45.6
14:10 1014 29.94 843 24.89 19.8 67.7 44 7.4 45.3
14:15 1014 29.94 843 24.89 19 66.1 47 7.5 45.5
14:20 1014 29.94 843 24.89 19.6 67.3 45 7.5 45.4
14:25 1014 29.94 843 24.89 19.9 67.8 45 7.7 45.8
14:30 1014 29.94 843 24.89 20.8 69.4 44 8.4 47.1
14:35 1014 29.94 843 24.89 20.1 68.2 45 8 46.4
14:40 1014 29.94 843 24.89 20.3 68.5 45 8.2 46.8
14:45 1014 29.94 843 24.89 20.7 69.3 42 7.4 45.3
14:50 1014 29.94 843 24.89 19.9 67.8 44 7.6 45.6
14:55 1014 29.94 843 24.89 19.7 67.5 51 9.3 48.8
15:00 1014 29.94 843 24.89 18.1 64.5 52 8.1 46.7
15:05 1014 29.94 843 24.89 17.3 63.2 56 8.6 47.5
15:10 1014 29.94 843 24.89 16.2 61.2 56 7.6 45.8
15:15 1014 29.94 843 24.89 15.3 59.5 69 9.6 49.3
15:20 1014 29.94 844 24.92 14.8 58.6 67 8.8 47.8
15:25 1014 29.94 843 24.89 14.4 58 72 9.4 49
15:30 1014 29.94 843 24.89 14.7 58.5 72 9.7 49.4
15:35 1014 29.94 843 24.89 14.9 58.7 73 10.1 50.1
15:40 1014 29.94 844 24.92 14.7 58.4 74 10.1 50.1
15:45 1014 29.94 844 24.92 14 57.2 78 10.2 50.4
15:50 1014 29.94 844 24.92 13.4 56.1 79 9.8 49.6
15:55 1014 29.94 844 24.92 12.9 55.1 78 9.1 48.5
16:00 1014 29.94 844 24.92 13 55.3 77 9 48.2
16:05 1014 29.94 844 24.92 13.3 55.9 75 8.9 48
16:10 1014 29.94 844 24.92 13.7 56.6 73 9 48.3
16:15 1014 29.94 844 24.92 14.3 57.8 74 9.7 49.5
16:20 1014 29.94 844 24.92 14.7 58.5 67 8.6 47.6
16:25 1014 29.94 844 24.92 14.6 58.4 68 8.9 48
16:30 1014 29.94 844 24.92 14.9 58.8 71 9.7 49.4
16:35 1014 29.94 844 24.92 15 58.9 67 9 48.1
16:40 1014 29.94 844 24.92 15.2 59.3 68 9.3 48.8
16:45 1014 29.94 844 24.92 15.5 59.9 65 9.1 48.3
16:50 1014 29.94 844 24.92 16.3 61.4 66 10.1 50.2
16:55 1014 29.94 844 24.92 16.9 62.4 63 9.9 49.8
17:00 1014 29.94 844 24.92 17 62.6 64 10.3 50.6
17:05 1014 29.94 844 24.92 17.3 63.1 60 9.5 49.1
17:10 1014 29.94 844 24.92 17.2 62.9 59 9.1 48.5
17:15 1014 29.94 844 24.92 18.1 64.6 55 9 48.3
17:20 1014 29.94 844 24.92 18.9 66.1 56 10 49.9
17:25 1014 29.94 844 24.92 19.1 66.3 52 9.2 48.6
17:30 1014 29.94 844 24.92 18.8 65.9 51 8.6 47.4
17:35 1014 29.94 844 24.92 18.6 65.4 54 9.1 48.5
17:40 1014 29.94 843 24.89 18 64.4 52 8.1 46.6
17:45 1014 29.94 843 24.89 18.8 65.8 49 7.9 46.2
17:50 1014 29.94 843 24.89 18.8 65.8 51 8.5 47.4
17:55 1014 29.94 843 24.89 18.3 65 52 8.4 47.1
18:00 1014 29.94 843 24.89 17.8 64 53 8.1 46.6
18:05 1014 29.94 843 24.89 18.2 64.7 50 7.8 46
18:10 1014 29.94 843 24.89 18.7 65.6 51 8.5 47.2
18:15 1014 29.94 843 24.89 18.3 64.9 52 8.4 47.1
18:20 1014 29.94 843 24.89 17.6 63.6 54 8.2 46.8
18:25 1014 29.94 843 24.89 17.4 63.3 52 7.6 45.6
18:30 1014 29.94 843 24.89 17.8 64.1 52 8 46.4
18:35 1014 29.94 843 24.89 17 62.7 55 8.2 46.7
18:40 1014 29.94 843 24.89 16.9 62.3 53 7.4 45.4
18:45 1014 29.94 843 24.89 17.2 63 54 7.8 46.1
18:50 1014 29.94 843 24.89 17.3 63.1 51 7.1 44.8
18:55 1014 29.94 843 24.89 17.9 64.1 50 7.3 45.2
19:00 1014 29.94 843 24.89 17.9 64.2 50 7.4 45.2
19:05 1014 29.94 843 24.89 18 64.5 50 7.5 45.4
19:10 1014 29.94 843 24.89 18 64.3 51 7.8 46
19:15 1014 29.94 844 24.92 17.7 63.9 52 7.8 46.1
19:20 1014 29.94 844 24.92 17.4 63.3 54 8.1 46.6
19:25 1014 29.94 844 24.92 16.9 62.4 56 8.1 46.5
19:30 1015 29.97 844 24.92 16.7 62 56 7.9 46.3
19:35 1015 29.97 844 24.92 16.5 61.6 58 8.3 47
19:40 1015 29.97 844 24.92 16.6 61.9 56 7.9 46.2
19:45 1015 29.97 844 24.92 16.5 61.8 62 9.4 48.8
19:50 1015 29.97 844 24.92 16.6 61.8 61 9 48.3
19:55 1015 29.97 844 24.92 16.5 61.8 63 9.6 49.3
20:00 1015 29.97 844 24.92 16.5 61.8 61 9 48.2
20:05 1015 29.97 844 24.92 16.3 61.4 61 8.8 47.8
20:10 1015 29.97 844 24.92 15.7 60.3 67 9.6 49.2
20:15 1015 29.97 844 24.92 15.2 59.4 73 10.5 50.9
20:20 1015 29.97 844 24.92 14.8 58.7 75 10.4 50.8
20:25 1015 29.97 844 24.92 14.6 58.3 78 10.8 51.5
20:30 1015 29.97 844 24.92 14.6 58.3 77 10.7 51.3
20:35 1015 29.97 844 24.92 14.6 58.3 77 10.7 51.3
20:40 1015 29.97 844 24.92 14.6 58.2 75 10.2 50.4
20:45 1015 29.97 844 24.92 14.7 58.5 74 10.2 50.3
20:50 1015 29.97 844 24.92 14.7 58.4 75 10.3 50.5
20:55 1015 29.97 844 24.92 14.5 58.1 76 10.4 50.7
21:00 1015 29.97 844 24.92 14.3 57.7 78 10.5 50.9
21:05 1015 29.97 844 24.92 14.3 57.7 77 10.3 50.5
21:10 1015 29.97 844 24.92 14 57.3 77 10.1 50.2
21:15 1015 29.97 844 24.92 13.9 57 77 9.9 49.8
21:20 1015 29.97 844 24.92 13.6 56.5 77 9.8 49.6
21:25 1015 29.97 844 24.92 13.5 56.2 75 9.2 48.6
21:30 1015 29.97 844 24.92 13.5 56.3 77 9.6 49.2
21:35 1015 29.97 845 24.95 13.4 56.1 79 9.8 49.6
21:40 1015 29.97 845 24.95 13.3 55.9 78 9.5 49.1
21:45 1016 30 845 24.95 13.6 56.4 75 9.3 48.7
21:50 1016 30 845 24.95 13.7 56.7 75 9.4 48.9
21:55 1016 30 845 24.95 13.9 56.9 77 9.9 49.8
22:00 1016 30 845 24.95 13.8 56.8 78 10.1 50.1
22:05 1016 30 845 24.95 13.8 56.9 79 10.3 50.6
22:10 1016 30 845 24.95 13.8 56.9 80 10.5 50.8
22:15 1016 30 845 24.95 13.9 56.9 80 10.5 50.9
22:20 1016 30 845 24.95 13.9 57.1 78 10.2 50.4
22:25 1016 30 845 24.95 13.9 57.1 76 9.7 49.5
22:30 1016 30 845 24.95 13.9 57 75 9.5 49.1
22:35 1016 30 845 24.95 13.9 57.1 74 9.4 49
22:40 1016 30 845 24.95 13.9 57 75 9.5 49.2
22:45 1016 30 845 24.95 13.9 57 75 9.6 49.2
22:50 1016 30 845 24.95 13.9 57 74 9.4 49
22:55 1016 30 845 24.95 13.9 57 75 9.5 49.1
23:00 1016 30 845 24.95 13.9 57 75 9.6 49.2
23:05 1016 30 845 24.95 13.9 57 75 9.7 49.4
23:10 1016 30 845 24.95 13.8 56.9 76 9.7 49.5
23:15 1016 30 845 24.95 13.7 56.7 76 9.7 49.4
23:20 1016 30 845 24.95 13.7 56.6 78 10 50
23:25 1016 30 845 24.95 13.3 55.9 79 9.7 49.5
23:30 1016 30 845 24.95 13.4 56.2 78 9.8 49.6
23:35 1016 30 845 24.95 13.5 56.3 78 9.8 49.7
23:40 1016 30 845 24.95 13.5 56.3 78 9.8 49.6
23:45 1016 30 845 24.95 13.5 56.2 78 9.7 49.5
23:50 1016 30 845 24.95 13.5 56.2 79 9.9 49.9
23:55 1016 30 845 24.95 13.4 56.1 80 10 50
24:00 1016 30 845 24.95 13.4 56.1 79 9.8 49.7